sensor_id;sensor_type;location;lat;lon;timestamp;P1;durP1;ratioP1;P2;durP2;ratioP2
9671;SDS011;4874;43.568;27.824;2023-03-23T00:01:22;15.33;;;7.13;;
9671;SDS011;4874;43.568;27.824;2023-03-23T00:03:50;14.30;;;6.97;;
9671;SDS011;4874;43.568;27.824;2023-03-23T00:06:18;13.00;;;6.57;;
9671;SDS011;4874;43.568;27.824;2023-03-23T00:08:45;14.60;;;6.75;;
9671;SDS011;4874;43.568;27.824;2023-03-23T00:11:12;13.40;;;6.78;;
9671;SDS011;4874;43.568;27.824;2023-03-23T00:13:42;13.68;;;6.85;;
9671;SDS011;4874;43.568;27.824;2023-03-23T00:16:09;12.77;;;7.32;;
9671;SDS011;4874;43.568;27.824;2023-03-23T00:18:45;13.18;;;7.22;;
9671;SDS011;4874;43.568;27.824;2023-03-23T00:21:12;12.68;;;6.47;;
9671;SDS011;4874;43.568;27.824;2023-03-23T00:23:38;16.77;;;6.27;;
9671;SDS011;4874;43.568;27.824;2023-03-23T00:26:04;12.52;;;6.57;;
9671;SDS011;4874;43.568;27.824;2023-03-23T00:28:30;13.75;;;6.40;;
9671;SDS011;4874;43.568;27.824;2023-03-23T00:31:01;13.97;;;7.17;;
9671;SDS011;4874;43.568;27.824;2023-03-23T00:33:29;15.77;;;7.00;;
9671;SDS011;4874;43.568;27.824;2023-03-23T00:35:58;12.88;;;6.45;;
9671;SDS011;4874;43.568;27.824;2023-03-23T00:38:24;15.85;;;7.55;;
9671;SDS011;4874;43.568;27.824;2023-03-23T00:40:50;14.50;;;7.75;;
9671;SDS011;4874;43.568;27.824;2023-03-23T00:43:17;15.83;;;8.07;;
9671;SDS011;4874;43.568;27.824;2023-03-23T00:45:44;15.65;;;7.65;;
9671;SDS011;4874;43.568;27.824;2023-03-23T00:48:18;15.77;;;8.05;;
9671;SDS011;4874;43.568;27.824;2023-03-23T00:50:44;15.02;;;8.02;;
9671;SDS011;4874;43.568;27.824;2023-03-23T00:53:10;13.13;;;7.38;;
9671;SDS011;4874;43.568;27.824;2023-03-23T00:55:36;14.93;;;7.57;;
9671;SDS011;4874;43.568;27.824;2023-03-23T00:58:02;14.07;;;7.40;;
9671;SDS011;4874;43.568;27.824;2023-03-23T01:00:27;12.40;;;6.80;;
9671;SDS011;4874;43.568;27.824;2023-03-23T01:02:53;14.23;;;6.93;;
9671;SDS011;4874;43.568;27.824;2023-03-23T01:05:19;15.02;;;7.25;;
9671;SDS011;4874;43.568;27.824;2023-03-23T01:07:45;12.98;;;7.22;;
9671;SDS011;4874;43.568;27.824;2023-03-23T01:10:12;13.77;;;7.47;;
9671;SDS011;4874;43.568;27.824;2023-03-23T01:12:42;17.23;;;7.50;;
9671;SDS011;4874;43.568;27.824;2023-03-23T01:15:09;17.45;;;7.55;;
9671;SDS011;4874;43.568;27.824;2023-03-23T01:17:39;14.65;;;7.07;;
9671;SDS011;4874;43.568;27.824;2023-03-23T01:20:06;15.07;;;7.40;;
9671;SDS011;4874;43.568;27.824;2023-03-23T01:22:32;15.75;;;7.47;;
9671;SDS011;4874;43.568;27.824;2023-03-23T01:24:57;15.83;;;8.67;;
9671;SDS011;4874;43.568;27.824;2023-03-23T01:27:23;16.63;;;8.73;;
9671;SDS011;4874;43.568;27.824;2023-03-23T01:29:49;15.13;;;8.30;;
9671;SDS011;4874;43.568;27.824;2023-03-23T01:32:14;17.00;;;9.10;;
9671;SDS011;4874;43.568;27.824;2023-03-23T01:34:40;18.97;;;9.20;;
9671;SDS011;4874;43.568;27.824;2023-03-23T01:37:05;18.03;;;9.23;;
9671;SDS011;4874;43.568;27.824;2023-03-23T01:39:31;21.13;;;9.83;;
9671;SDS011;4874;43.568;27.824;2023-03-23T01:41:57;20.00;;;9.20;;
9671;SDS011;4874;43.568;27.824;2023-03-23T01:46:48;19.93;;;10.43;;
9671;SDS011;4874;43.568;27.824;2023-03-23T01:49:17;21.77;;;10.03;;
9671;SDS011;4874;43.568;27.824;2023-03-23T01:51:48;20.35;;;9.82;;
9671;SDS011;4874;43.568;27.824;2023-03-23T01:54:17;21.17;;;10.00;;
9671;SDS011;4874;43.568;27.824;2023-03-23T01:56:50;15.93;;;8.82;;
9671;SDS011;4874;43.568;27.824;2023-03-23T01:59:21;16.92;;;9.18;;
9671;SDS011;4874;43.568;27.824;2023-03-23T02:01:48;17.60;;;9.43;;
9671;SDS011;4874;43.568;27.824;2023-03-23T02:04:17;17.02;;;10.07;;
9671;SDS011;4874;43.568;27.824;2023-03-23T02:06:44;18.65;;;9.50;;
9671;SDS011;4874;43.568;27.824;2023-03-23T02:09:10;21.75;;;11.18;;
9671;SDS011;4874;43.568;27.824;2023-03-23T02:11:47;19.35;;;9.98;;
9671;SDS011;4874;43.568;27.824;2023-03-23T02:14:15;22.85;;;11.15;;
9671;SDS011;4874;43.568;27.824;2023-03-23T02:26:59;18.90;;;10.73;;
9671;SDS011;4874;43.568;27.824;2023-03-23T02:32:26;20.00;;;11.07;;
9671;SDS011;4874;43.568;27.824;2023-03-23T02:35:02;21.67;;;10.48;;
9671;SDS011;4874;43.568;27.824;2023-03-23T02:37:51;20.20;;;11.07;;
9671;SDS011;4874;43.568;27.824;2023-03-23T02:40:30;19.88;;;11.02;;
9671;SDS011;4874;43.568;27.824;2023-03-23T02:43:01;19.30;;;10.30;;
9671;SDS011;4874;43.568;27.824;2023-03-23T02:45:31;20.58;;;12.15;;
9671;SDS011;4874;43.568;27.824;2023-03-23T02:48:00;20.67;;;11.00;;
9671;SDS011;4874;43.568;27.824;2023-03-23T02:50:29;20.40;;;11.38;;
9671;SDS011;4874;43.568;27.824;2023-03-23T02:52:56;21.38;;;11.65;;
9671;SDS011;4874;43.568;27.824;2023-03-23T02:55:24;24.58;;;11.90;;
9671;SDS011;4874;43.568;27.824;2023-03-23T02:57:53;18.23;;;10.70;;
9671;SDS011;4874;43.568;27.824;2023-03-23T03:00:20;21.67;;;11.35;;
9671;SDS011;4874;43.568;27.824;2023-03-23T03:02:50;20.83;;;11.18;;
9671;SDS011;4874;43.568;27.824;2023-03-23T03:10:33;22.77;;;12.18;;
9671;SDS011;4874;43.568;27.824;2023-03-23T03:21:14;24.20;;;13.00;;
9671;SDS011;4874;43.568;27.824;2023-03-23T03:23:45;24.92;;;12.95;;
9671;SDS011;4874;43.568;27.824;2023-03-23T03:26:14;24.23;;;12.55;;
9671;SDS011;4874;43.568;27.824;2023-03-23T03:28:46;22.33;;;12.38;;
9671;SDS011;4874;43.568;27.824;2023-03-23T03:31:15;24.13;;;12.68;;
9671;SDS011;4874;43.568;27.824;2023-03-23T03:33:46;26.95;;;13.88;;
9671;SDS011;4874;43.568;27.824;2023-03-23T03:36:23;25.90;;;14.00;;
9671;SDS011;4874;43.568;27.824;2023-03-23T03:38:51;27.27;;;13.48;;
9671;SDS011;4874;43.568;27.824;2023-03-23T03:41:18;25.73;;;13.95;;
9671;SDS011;4874;43.568;27.824;2023-03-23T03:46:10;23.83;;;12.95;;
9671;SDS011;4874;43.568;27.824;2023-03-23T03:48:36;28.17;;;13.90;;
9671;SDS011;4874;43.568;27.824;2023-03-23T03:51:01;27.20;;;13.23;;
9671;SDS011;4874;43.568;27.824;2023-03-23T03:53:27;26.80;;;14.20;;
9671;SDS011;4874;43.568;27.824;2023-03-23T03:55:54;24.25;;;12.68;;
9671;SDS011;4874;43.568;27.824;2023-03-23T03:58:25;24.70;;;12.85;;
9671;SDS011;4874;43.568;27.824;2023-03-23T04:00:59;26.50;;;13.73;;
9671;SDS011;4874;43.568;27.824;2023-03-23T04:03:25;28.02;;;14.38;;
9671;SDS011;4874;43.568;27.824;2023-03-23T04:05:52;28.10;;;15.07;;
9671;SDS011;4874;43.568;27.824;2023-03-23T04:08:21;27.02;;;14.73;;
9671;SDS011;4874;43.568;27.824;2023-03-23T04:10:49;26.60;;;14.32;;
9671;SDS011;4874;43.568;27.824;2023-03-23T04:13:16;30.42;;;15.00;;
9671;SDS011;4874;43.568;27.824;2023-03-23T04:15:43;29.70;;;15.00;;
9671;SDS011;4874;43.568;27.824;2023-03-23T04:18:09;26.38;;;14.43;;
9671;SDS011;4874;43.568;27.824;2023-03-23T04:20:34;27.03;;;14.40;;
9671;SDS011;4874;43.568;27.824;2023-03-23T04:23:00;28.83;;;14.90;;
9671;SDS011;4874;43.568;27.824;2023-03-23T04:25:27;26.67;;;13.85;;
9671;SDS011;4874;43.568;27.824;2023-03-23T04:27:52;27.03;;;15.57;;
9671;SDS011;4874;43.568;27.824;2023-03-23T04:30:21;27.83;;;14.67;;
9671;SDS011;4874;43.568;27.824;2023-03-23T04:32:50;27.60;;;15.15;;
9671;SDS011;4874;43.568;27.824;2023-03-23T04:35:18;31.92;;;15.55;;
9671;SDS011;4874;43.568;27.824;2023-03-23T04:37:45;26.45;;;14.75;;
9671;SDS011;4874;43.568;27.824;2023-03-23T04:40:12;28.17;;;15.43;;
9671;SDS011;4874;43.568;27.824;2023-03-23T04:42:43;28.95;;;14.98;;
9671;SDS011;4874;43.568;27.824;2023-03-23T04:45:15;25.35;;;14.15;;
9671;SDS011;4874;43.568;27.824;2023-03-23T04:47:48;25.42;;;13.25;;
9671;SDS011;4874;43.568;27.824;2023-03-23T04:50:23;26.48;;;14.27;;
9671;SDS011;4874;43.568;27.824;2023-03-23T04:52:51;28.90;;;16.08;;
9671;SDS011;4874;43.568;27.824;2023-03-23T04:55:19;28.42;;;15.07;;
9671;SDS011;4874;43.568;27.824;2023-03-23T04:57:46;26.00;;;14.40;;
9671;SDS011;4874;43.568;27.824;2023-03-23T05:00:12;28.02;;;15.30;;
9671;SDS011;4874;43.568;27.824;2023-03-23T05:02:42;30.15;;;16.55;;
9671;SDS011;4874;43.568;27.824;2023-03-23T05:05:18;25.92;;;14.73;;
9671;SDS011;4874;43.568;27.824;2023-03-23T05:07:45;27.75;;;15.25;;
9671;SDS011;4874;43.568;27.824;2023-03-23T05:10:11;27.97;;;14.70;;
9671;SDS011;4874;43.568;27.824;2023-03-23T05:12:38;32.67;;;16.25;;
9671;SDS011;4874;43.568;27.824;2023-03-23T05:15:04;30.98;;;14.82;;
9671;SDS011;4874;43.568;27.824;2023-03-23T05:17:32;28.45;;;15.65;;
9671;SDS011;4874;43.568;27.824;2023-03-23T05:22:26;33.35;;;17.65;;
9671;SDS011;4874;43.568;27.824;2023-03-23T05:24:52;35.05;;;17.23;;
9671;SDS011;4874;43.568;27.824;2023-03-23T05:27:18;36.23;;;16.57;;
9671;SDS011;4874;43.568;27.824;2023-03-23T05:29:45;30.15;;;15.30;;
9671;SDS011;4874;43.568;27.824;2023-03-23T05:32:16;27.80;;;15.60;;
9671;SDS011;4874;43.568;27.824;2023-03-23T05:34:42;31.25;;;15.88;;
9671;SDS011;4874;43.568;27.824;2023-03-23T05:37:08;38.75;;;18.65;;
9671;SDS011;4874;43.568;27.824;2023-03-23T05:39:37;36.90;;;18.52;;
9671;SDS011;4874;43.568;27.824;2023-03-23T05:42:03;43.78;;;19.52;;
9671;SDS011;4874;43.568;27.824;2023-03-23T05:44:29;42.63;;;19.90;;
9671;SDS011;4874;43.568;27.824;2023-03-23T05:46:55;41.97;;;19.80;;
9671;SDS011;4874;43.568;27.824;2023-03-23T05:49:21;35.80;;;17.43;;
9671;SDS011;4874;43.568;27.824;2023-03-23T05:51:47;40.08;;;18.48;;
9671;SDS011;4874;43.568;27.824;2023-03-23T05:54:15;37.35;;;16.75;;
9671;SDS011;4874;43.568;27.824;2023-03-23T05:56:41;31.63;;;16.50;;
9671;SDS011;4874;43.568;27.824;2023-03-23T05:59:08;35.17;;;16.48;;
9671;SDS011;4874;43.568;27.824;2023-03-23T06:01:35;37.45;;;15.93;;
9671;SDS011;4874;43.568;27.824;2023-03-23T06:04:01;34.60;;;17.55;;
9671;SDS011;4874;43.568;27.824;2023-03-23T06:06:27;32.93;;;15.63;;
9671;SDS011;4874;43.568;27.824;2023-03-23T06:08:55;34.72;;;16.30;;
9671;SDS011;4874;43.568;27.824;2023-03-23T06:11:22;33.35;;;16.63;;
9671;SDS011;4874;43.568;27.824;2023-03-23T06:13:49;36.75;;;17.75;;
9671;SDS011;4874;43.568;27.824;2023-03-23T06:16:15;36.42;;;18.15;;
9671;SDS011;4874;43.568;27.824;2023-03-23T06:18:41;44.87;;;21.70;;
9671;SDS011;4874;43.568;27.824;2023-03-23T06:21:07;43.72;;;22.65;;
9671;SDS011;4874;43.568;27.824;2023-03-23T06:26:01;40.70;;;17.95;;
9671;SDS011;4874;43.568;27.824;2023-03-23T06:28:30;36.83;;;18.60;;
9671;SDS011;4874;43.568;27.824;2023-03-23T06:31:03;30.30;;;15.77;;
9671;SDS011;4874;43.568;27.824;2023-03-23T06:33:32;31.83;;;15.82;;
9671;SDS011;4874;43.568;27.824;2023-03-23T06:35:59;39.47;;;17.35;;
9671;SDS011;4874;43.568;27.824;2023-03-23T06:38:25;32.13;;;16.42;;
9671;SDS011;4874;43.568;27.824;2023-03-23T06:40:54;34.00;;;16.10;;
9671;SDS011;4874;43.568;27.824;2023-03-23T06:43:20;35.17;;;17.05;;
9671;SDS011;4874;43.568;27.824;2023-03-23T06:45:46;34.87;;;16.97;;
9671;SDS011;4874;43.568;27.824;2023-03-23T06:48:12;43.50;;;19.47;;
9671;SDS011;4874;43.568;27.824;2023-03-23T06:50:38;43.03;;;20.27;;
9671;SDS011;4874;43.568;27.824;2023-03-23T06:53:04;48.07;;;21.20;;
9671;SDS011;4874;43.568;27.824;2023-03-23T06:55:30;44.53;;;21.33;;
9671;SDS011;4874;43.568;27.824;2023-03-23T06:57:56;42.17;;;20.35;;
9671;SDS011;4874;43.568;27.824;2023-03-23T07:00:21;40.80;;;18.97;;
9671;SDS011;4874;43.568;27.824;2023-03-23T07:02:47;36.53;;;18.00;;
9671;SDS011;4874;43.568;27.824;2023-03-23T07:05:15;37.55;;;17.95;;
9671;SDS011;4874;43.568;27.824;2023-03-23T07:07:41;36.83;;;17.37;;
9671;SDS011;4874;43.568;27.824;2023-03-23T07:10:07;35.83;;;18.20;;
9671;SDS011;4874;43.568;27.824;2023-03-23T07:12:35;39.70;;;19.80;;
9671;SDS011;4874;43.568;27.824;2023-03-23T07:15:02;39.15;;;19.15;;
9671;SDS011;4874;43.568;27.824;2023-03-23T07:17:28;38.70;;;19.88;;
9671;SDS011;4874;43.568;27.824;2023-03-23T07:19:53;33.10;;;19.67;;
9671;SDS011;4874;43.568;27.824;2023-03-23T07:22:19;38.40;;;19.73;;
9671;SDS011;4874;43.568;27.824;2023-03-23T07:24:45;65.47;;;23.77;;
9671;SDS011;4874;43.568;27.824;2023-03-23T07:27:11;180.57;;;36.63;;
9671;SDS011;4874;43.568;27.824;2023-03-23T07:29:36;98.70;;;26.57;;
9671;SDS011;4874;43.568;27.824;2023-03-23T07:32:04;137.13;;;31.38;;
9671;SDS011;4874;43.568;27.824;2023-03-23T07:36:57;31.25;;;17.75;;
9671;SDS011;4874;43.568;27.824;2023-03-23T07:39:23;45.42;;;20.02;;
9671;SDS011;4874;43.568;27.824;2023-03-23T07:41:49;105.47;;;25.85;;
9671;SDS011;4874;43.568;27.824;2023-03-23T07:44:15;28.27;;;15.68;;
9671;SDS011;4874;43.568;27.824;2023-03-23T07:46:41;67.00;;;21.05;;
9671;SDS011;4874;43.568;27.824;2023-03-23T07:49:07;33.78;;;15.27;;
9671;SDS011;4874;43.568;27.824;2023-03-23T07:51:33;34.40;;;18.52;;
9671;SDS011;4874;43.568;27.824;2023-03-23T07:53:59;30.05;;;17.80;;
9671;SDS011;4874;43.568;27.824;2023-03-23T07:56:27;27.90;;;16.48;;
9671;SDS011;4874;43.568;27.824;2023-03-23T07:58:53;27.90;;;17.27;;
9671;SDS011;4874;43.568;27.824;2023-03-23T08:01:19;28.45;;;15.48;;
9671;SDS011;4874;43.568;27.824;2023-03-23T08:03:44;28.00;;;16.17;;
9671;SDS011;4874;43.568;27.824;2023-03-23T08:06:10;25.27;;;14.77;;
9671;SDS011;4874;43.568;27.824;2023-03-23T08:08:36;30.33;;;16.40;;
9671;SDS011;4874;43.568;27.824;2023-03-23T08:11:02;32.08;;;18.45;;
9671;SDS011;4874;43.568;27.824;2023-03-23T08:13:28;49.65;;;19.52;;
9671;SDS011;4874;43.568;27.824;2023-03-23T08:15:54;37.13;;;16.80;;
9671;SDS011;4874;43.568;27.824;2023-03-23T08:18:20;29.20;;;17.70;;
9671;SDS011;4874;43.568;27.824;2023-03-23T08:20:45;26.80;;;15.57;;
9671;SDS011;4874;43.568;27.824;2023-03-23T08:23:11;31.83;;;16.60;;
9671;SDS011;4874;43.568;27.824;2023-03-23T08:25:37;107.50;;;24.27;;
9671;SDS011;4874;43.568;27.824;2023-03-23T08:28:03;31.10;;;15.60;;
9671;SDS011;4874;43.568;27.824;2023-03-23T08:30:30;28.92;;;15.65;;
9671;SDS011;4874;43.568;27.824;2023-03-23T08:32:58;58.35;;;19.08;;
9671;SDS011;4874;43.568;27.824;2023-03-23T08:35:25;31.70;;;16.23;;
9671;SDS011;4874;43.568;27.824;2023-03-23T08:37:52;37.55;;;16.30;;
9671;SDS011;4874;43.568;27.824;2023-03-23T08:40:19;26.50;;;16.13;;
9671;SDS011;4874;43.568;27.824;2023-03-23T08:42:47;45.50;;;17.63;;
9671;SDS011;4874;43.568;27.824;2023-03-23T08:45:16;27.75;;;16.08;;
9671;SDS011;4874;43.568;27.824;2023-03-23T08:47:43;33.97;;;16.55;;
9671;SDS011;4874;43.568;27.824;2023-03-23T08:50:14;28.38;;;15.10;;
9671;SDS011;4874;43.568;27.824;2023-03-23T08:52:41;37.28;;;14.38;;
9671;SDS011;4874;43.568;27.824;2023-03-23T08:55:07;39.17;;;24.38;;
9671;SDS011;4874;43.568;27.824;2023-03-23T08:59:59;32.78;;;16.13;;
9671;SDS011;4874;43.568;27.824;2023-03-23T09:02:38;60.40;;;36.90;;
9671;SDS011;4874;43.568;27.824;2023-03-23T09:05:03;75.90;;;19.83;;
9671;SDS011;4874;43.568;27.824;2023-03-23T09:07:29;40.60;;;17.30;;
9671;SDS011;4874;43.568;27.824;2023-03-23T09:09:55;53.90;;;18.60;;
9671;SDS011;4874;43.568;27.824;2023-03-23T09:12:21;63.80;;;18.65;;
9671;SDS011;4874;43.568;27.824;2023-03-23T09:14:47;29.63;;;15.38;;
9671;SDS011;4874;43.568;27.824;2023-03-23T09:17:13;88.13;;;20.50;;
9671;SDS011;4874;43.568;27.824;2023-03-23T09:19:38;26.23;;;15.13;;
9671;SDS011;4874;43.568;27.824;2023-03-23T09:22:04;24.60;;;14.23;;
9671;SDS011;4874;43.568;27.824;2023-03-23T09:24:31;27.52;;;15.63;;
9671;SDS011;4874;43.568;27.824;2023-03-23T09:26:56;24.97;;;14.63;;
9671;SDS011;4874;43.568;27.824;2023-03-23T09:29:24;27.00;;;15.68;;
9671;SDS011;4874;43.568;27.824;2023-03-23T09:31:50;33.47;;;16.63;;
9671;SDS011;4874;43.568;27.824;2023-03-23T09:34:16;27.80;;;15.57;;
9671;SDS011;4874;43.568;27.824;2023-03-23T09:36:42;32.10;;;17.70;;
9671;SDS011;4874;43.568;27.824;2023-03-23T09:41:54;30.90;;;15.50;;
9671;SDS011;4874;43.568;27.824;2023-03-23T09:50:26;32.33;;;16.65;;
9671;SDS011;4874;43.568;27.824;2023-03-23T09:53:00;31.20;;;15.82;;
9671;SDS011;4874;43.568;27.824;2023-03-23T09:55:32;26.35;;;15.85;;
9671;SDS011;4874;43.568;27.824;2023-03-23T09:58:03;27.90;;;15.32;;
9671;SDS011;4874;43.568;27.824;2023-03-23T10:01:00;28.27;;;16.58;;
9671;SDS011;4874;43.568;27.824;2023-03-23T10:03:48;23.85;;;14.13;;
9671;SDS011;4874;43.568;27.824;2023-03-23T10:06:27;25.05;;;14.23;;
9671;SDS011;4874;43.568;27.824;2023-03-23T10:08:54;28.65;;;15.77;;
9671;SDS011;4874;43.568;27.824;2023-03-23T10:17:15;26.75;;;16.42;;
9671;SDS011;4874;43.568;27.824;2023-03-23T10:22:29;27.92;;;17.25;;
9671;SDS011;4874;43.568;27.824;2023-03-23T10:25:05;27.30;;;15.77;;
9671;SDS011;4874;43.568;27.824;2023-03-23T10:28:32;26.63;;;16.08;;
9671;SDS011;4874;43.568;27.824;2023-03-23T10:30:46;27.45;;;17.42;;
9671;SDS011;4874;43.568;27.824;2023-03-23T10:35:56;26.58;;;15.27;;
9671;SDS011;4874;43.568;27.824;2023-03-23T10:38:36;25.45;;;16.60;;
9671;SDS011;4874;43.568;27.824;2023-03-23T10:41:10;27.85;;;16.42;;
9671;SDS011;4874;43.568;27.824;2023-03-23T10:43:37;26.60;;;16.60;;
9671;SDS011;4874;43.568;27.824;2023-03-23T10:46:40;95.72;;;23.63;;
9671;SDS011;4874;43.568;27.824;2023-03-23T10:49:13;42.38;;;17.55;;
9671;SDS011;4874;43.568;27.824;2023-03-23T10:51:49;27.67;;;15.50;;
9671;SDS011;4874;43.568;27.824;2023-03-23T10:57:23;35.03;;;20.33;;
9671;SDS011;4874;43.568;27.824;2023-03-23T10:59:57;35.65;;;21.00;;
9671;SDS011;4874;43.568;27.824;2023-03-23T11:02:24;56.08;;;21.02;;
9671;SDS011;4874;43.568;27.824;2023-03-23T11:05:01;97.63;;;26.27;;
9671;SDS011;4874;43.568;27.824;2023-03-23T11:07:31;27.65;;;17.00;;
9671;SDS011;4874;43.568;27.824;2023-03-23T11:10:11;29.15;;;17.08;;
9671;SDS011;4874;43.568;27.824;2023-03-23T11:12:46;32.90;;;20.60;;
9671;SDS011;4874;43.568;27.824;2023-03-23T11:15:21;58.60;;;23.00;;
9671;SDS011;4874;43.568;27.824;2023-03-23T11:18:04;35.85;;;22.42;;
9671;SDS011;4874;43.568;27.824;2023-03-23T11:20:34;38.65;;;21.67;;
9671;SDS011;4874;43.568;27.824;2023-03-23T11:23:15;37.58;;;22.05;;
9671;SDS011;4874;43.568;27.824;2023-03-23T11:28:43;47.22;;;19.77;;
9671;SDS011;4874;43.568;27.824;2023-03-23T11:31:09;32.45;;;18.77;;
9671;SDS011;4874;43.568;27.824;2023-03-23T11:33:37;69.32;;;23.35;;
9671;SDS011;4874;43.568;27.824;2023-03-23T11:36:12;29.05;;;17.45;;
9671;SDS011;4874;43.568;27.824;2023-03-23T11:38:39;31.38;;;18.67;;
9671;SDS011;4874;43.568;27.824;2023-03-23T11:41:09;30.67;;;17.73;;
9671;SDS011;4874;43.568;27.824;2023-03-23T11:43:40;30.45;;;17.50;;
9671;SDS011;4874;43.568;27.824;2023-03-23T11:46:23;34.25;;;19.33;;
9671;SDS011;4874;43.568;27.824;2023-03-23T11:48:58;29.65;;;17.52;;
9671;SDS011;4874;43.568;27.824;2023-03-23T11:51:50;37.53;;;19.92;;
9671;SDS011;4874;43.568;27.824;2023-03-23T11:54:30;30.27;;;17.48;;
9671;SDS011;4874;43.568;27.824;2023-03-23T11:56:59;27.38;;;17.35;;
9671;SDS011;4874;43.568;27.824;2023-03-23T11:59:34;26.52;;;15.68;;
9671;SDS011;4874;43.568;27.824;2023-03-23T12:07:36;31.92;;;18.88;;
9671;SDS011;4874;43.568;27.824;2023-03-23T12:10:27;31.85;;;18.48;;
9671;SDS011;4874;43.568;27.824;2023-03-23T12:16:10;26.55;;;16.33;;
9671;SDS011;4874;43.568;27.824;2023-03-23T12:19:06;27.33;;;16.77;;
9671;SDS011;4874;43.568;27.824;2023-03-23T12:21:55;25.65;;;15.90;;
9671;SDS011;4874;43.568;27.824;2023-03-23T12:29:59;28.27;;;16.83;;
9671;SDS011;4874;43.568;27.824;2023-03-23T12:35:06;25.20;;;16.90;;
9671;SDS011;4874;43.568;27.824;2023-03-23T12:37:49;50.55;;;18.88;;
9671;SDS011;4874;43.568;27.824;2023-03-23T12:41:04;66.07;;;26.05;;
9671;SDS011;4874;43.568;27.824;2023-03-23T12:49:02;145.77;;;27.05;;
9671;SDS011;4874;43.568;27.824;2023-03-23T12:51:48;32.25;;;18.52;;
9671;SDS011;4874;43.568;27.824;2023-03-23T12:54:29;44.28;;;16.90;;
9671;SDS011;4874;43.568;27.824;2023-03-23T12:59:41;30.20;;;15.10;;
9671;SDS011;4874;43.568;27.824;2023-03-23T13:04:45;33.10;;;16.30;;
9671;SDS011;4874;43.568;27.824;2023-03-23T13:07:18;25.52;;;14.85;;
9671;SDS011;4874;43.568;27.824;2023-03-23T13:09:53;24.38;;;14.73;;
9671;SDS011;4874;43.568;27.824;2023-03-23T13:17:49;21.42;;;14.25;;
9671;SDS011;4874;43.568;27.824;2023-03-23T13:20:35;36.97;;;18.90;;
9671;SDS011;4874;43.568;27.824;2023-03-23T13:23:25;35.42;;;17.10;;
9671;SDS011;4874;43.568;27.824;2023-03-23T13:26:03;29.33;;;15.38;;
9671;SDS011;4874;43.568;27.824;2023-03-23T13:31:41;45.75;;;18.02;;
9671;SDS011;4874;43.568;27.824;2023-03-23T13:34:12;23.35;;;14.73;;
9671;SDS011;4874;43.568;27.824;2023-03-23T13:37:05;24.65;;;14.75;;
9671;SDS011;4874;43.568;27.824;2023-03-23T13:39:51;33.83;;;15.82;;
9671;SDS011;4874;43.568;27.824;2023-03-23T13:42:28;24.77;;;14.05;;
9671;SDS011;4874;43.568;27.824;2023-03-23T13:47:41;31.63;;;14.98;;
9671;SDS011;4874;43.568;27.824;2023-03-23T13:57:51;26.20;;;15.00;;
9671;SDS011;4874;43.568;27.824;2023-03-23T14:05:50;21.80;;;13.63;;
9671;SDS011;4874;43.568;27.824;2023-03-23T14:16:02;35.17;;;16.00;;
9671;SDS011;4874;43.568;27.824;2023-03-23T14:18:31;22.25;;;14.00;;
9671;SDS011;4874;43.568;27.824;2023-03-23T14:21:02;35.15;;;14.45;;
9671;SDS011;4874;43.568;27.824;2023-03-23T14:23:30;21.33;;;14.52;;
9671;SDS011;4874;43.568;27.824;2023-03-23T14:25:59;33.45;;;14.65;;
9671;SDS011;4874;43.568;27.824;2023-03-23T14:28:39;26.50;;;14.18;;
9671;SDS011;4874;43.568;27.824;2023-03-23T14:31:20;24.23;;;14.48;;
9671;SDS011;4874;43.568;27.824;2023-03-23T14:33:48;22.30;;;13.65;;
9671;SDS011;4874;43.568;27.824;2023-03-23T14:36:49;22.50;;;13.77;;
9671;SDS011;4874;43.568;27.824;2023-03-23T14:41:37;29.90;;;16.17;;
9671;SDS011;4874;43.568;27.824;2023-03-23T14:44:05;23.75;;;16.10;;
9671;SDS011;4874;43.568;27.824;2023-03-23T14:46:34;26.35;;;15.60;;
9671;SDS011;4874;43.568;27.824;2023-03-23T14:49:04;24.40;;;14.63;;
9671;SDS011;4874;43.568;27.824;2023-03-23T14:51:31;21.52;;;14.45;;
9671;SDS011;4874;43.568;27.824;2023-03-23T14:53:58;21.65;;;13.60;;
9671;SDS011;4874;43.568;27.824;2023-03-23T14:56:32;26.05;;;14.20;;
9671;SDS011;4874;43.568;27.824;2023-03-23T14:59:03;22.67;;;13.93;;
9671;SDS011;4874;43.568;27.824;2023-03-23T15:01:31;18.88;;;13.20;;
9671;SDS011;4874;43.568;27.824;2023-03-23T15:04:03;20.42;;;13.43;;
9671;SDS011;4874;43.568;27.824;2023-03-23T15:07:00;22.27;;;14.02;;
9671;SDS011;4874;43.568;27.824;2023-03-23T15:09:30;23.10;;;14.25;;
9671;SDS011;4874;43.568;27.824;2023-03-23T15:12:00;22.25;;;13.82;;
9671;SDS011;4874;43.568;27.824;2023-03-23T15:14:29;23.48;;;14.75;;
9671;SDS011;4874;43.568;27.824;2023-03-23T15:16:58;21.48;;;14.93;;
9671;SDS011;4874;43.568;27.824;2023-03-23T15:19:32;21.63;;;14.82;;
9671;SDS011;4874;43.568;27.824;2023-03-23T15:22:05;21.48;;;14.43;;
9671;SDS011;4874;43.568;27.824;2023-03-23T15:24:39;22.80;;;14.27;;
9671;SDS011;4874;43.568;27.824;2023-03-23T15:29:31;21.80;;;13.63;;
9671;SDS011;4874;43.568;27.824;2023-03-23T15:31:57;25.73;;;14.48;;
9671;SDS011;4874;43.568;27.824;2023-03-23T15:34:33;24.85;;;14.90;;
9671;SDS011;4874;43.568;27.824;2023-03-23T15:39:59;23.30;;;14.85;;
9671;SDS011;4874;43.568;27.824;2023-03-23T15:42:32;21.02;;;14.95;;
9671;SDS011;4874;43.568;27.824;2023-03-23T15:47:38;26.23;;;15.75;;
9671;SDS011;4874;43.568;27.824;2023-03-23T15:52:37;29.15;;;17.98;;
9671;SDS011;4874;43.568;27.824;2023-03-23T15:55:14;26.58;;;16.13;;
9671;SDS011;4874;43.568;27.824;2023-03-23T15:57:52;27.38;;;16.95;;
9671;SDS011;4874;43.568;27.824;2023-03-23T16:00:20;30.63;;;18.17;;
9671;SDS011;4874;43.568;27.824;2023-03-23T16:02:53;30.85;;;17.98;;
9671;SDS011;4874;43.568;27.824;2023-03-23T16:05:28;28.25;;;17.70;;
9671;SDS011;4874;43.568;27.824;2023-03-23T16:07:55;30.13;;;18.33;;
9671;SDS011;4874;43.568;27.824;2023-03-23T16:10:23;36.65;;;19.25;;
9671;SDS011;4874;43.568;27.824;2023-03-23T16:12:51;34.30;;;20.02;;
9671;SDS011;4874;43.568;27.824;2023-03-23T16:15:17;31.77;;;18.67;;
9671;SDS011;4874;43.568;27.824;2023-03-23T16:17:45;31.02;;;18.73;;
9671;SDS011;4874;43.568;27.824;2023-03-23T16:20:19;32.88;;;20.45;;
9671;SDS011;4874;43.568;27.824;2023-03-23T16:22:47;30.40;;;19.38;;
9671;SDS011;4874;43.568;27.824;2023-03-23T16:25:15;30.80;;;21.05;;
9671;SDS011;4874;43.568;27.824;2023-03-23T16:27:44;40.15;;;22.10;;
9671;SDS011;4874;43.568;27.824;2023-03-23T16:30:18;40.60;;;23.20;;
9671;SDS011;4874;43.568;27.824;2023-03-23T16:32:48;40.20;;;22.80;;
9671;SDS011;4874;43.568;27.824;2023-03-23T16:35:15;37.13;;;24.30;;
9671;SDS011;4874;43.568;27.824;2023-03-23T16:37:46;53.28;;;29.83;;
9671;SDS011;4874;43.568;27.824;2023-03-23T16:40:16;41.60;;;28.02;;
9671;SDS011;4874;43.568;27.824;2023-03-23T16:42:44;38.47;;;23.55;;
9671;SDS011;4874;43.568;27.824;2023-03-23T16:45:11;50.83;;;30.95;;
9671;SDS011;4874;43.568;27.824;2023-03-23T16:47:39;53.30;;;31.85;;
9671;SDS011;4874;43.568;27.824;2023-03-23T16:50:08;51.88;;;32.55;;
9671;SDS011;4874;43.568;27.824;2023-03-23T16:52:39;56.17;;;35.85;;
9671;SDS011;4874;43.568;27.824;2023-03-23T16:55:11;52.22;;;32.28;;
9671;SDS011;4874;43.568;27.824;2023-03-23T16:57:40;51.25;;;29.67;;
9671;SDS011;4874;43.568;27.824;2023-03-23T17:00:10;57.92;;;29.17;;
9671;SDS011;4874;43.568;27.824;2023-03-23T17:02:41;46.65;;;28.13;;
9671;SDS011;4874;43.568;27.824;2023-03-23T17:05:10;60.30;;;33.13;;
9671;SDS011;4874;43.568;27.824;2023-03-23T17:07:38;56.20;;;33.33;;
9671;SDS011;4874;43.568;27.824;2023-03-23T17:10:07;50.78;;;29.42;;
9671;SDS011;4874;43.568;27.824;2023-03-23T17:12:35;42.70;;;28.27;;